Carnival Freedom — 3EBL5 — position and weather

sailwx.info

Track history (hours):
 
Tides and Currents Weather Stations Pressure Air Temp Water Temp Dewpoint Dewpoint Depression Visibility Wind Speed Wind Dir Waves Ship Positions

Carnival Freedom

Last reported at 2018-Jul-22 07:01 UTC. Time now 2018-Jul-22 16:29 UTC.
Position N 27°36' W 092°17'.

Type: Ship. MMSI: 371154000.

Date/timePositionNaut miles runAvg speedWind from/ knotsBaromVisibWave heightAir tempDewpointWater temp
2018-Jul-22 07:01N 27°36' W 092°17'019.6
2018-Jul-22 07:00N 27°36' W 092°18'1019.3
2018-Jul-22 06:28N 27°43' W 092°26'919.2
2018-Jul-22 06:00N 27°50' W 092°33'919.0
2018-Jul-22 05:30N 27°57' W 092°39'1019.0
2018-Jul-22 05:00N 28°05' W 092°46'1018.8
2018-Jul-22 04:30N 28°12' W 092°53'918.5
2018-Jul-22 03:59N 28°18' W 093°01'918.5
2018-Jul-22 03:30N 28°23' W 093°09'917.7
2018-Jul-22 03:01N 28°28' W 093°18'918.5
2018-Jul-22 02:30N 28°34' W 093°26'918.8
2018-Jul-22 02:00N 28°39' W 093°35'918.5
2018-Jul-22 01:30N 28°44' W 093°43'918.5
2018-Jul-22 01:01N 28°50' W 093°52'918.2
2018-Jul-22 00:30N 28°55' W 094°00'815.8
2018-Jul-22 00:00N 28°60' W 094°08'815.6
2018-Jul-21 23:31N 29°04' W 094°15'815.4
2018-Jul-21 23:00N 29°08' W 094°23'815.4
2018-Jul-21 22:30N 29°12' W 094°30'714.9
2018-Jul-21 22:00N 29°17' W 094°37'612.1
2018-Jul-21 21:30N 29°21' W 094°42'5 9.9
2018-Jul-21 21:00N 29°19' W 094°48'0 0.4
2018-Jul-21 20:27N 29°19' W 094°48'0 0.0
2018-Jul-21 20:00N 29°19' W 094°48'0 0.0
2018-Jul-21 19:30N 29°19' W 094°48'0 0.0
2018-Jul-21 19:00N 29°19' W 094°48'0 0.0
2018-Jul-21 18:30N 29°19' W 094°48'0 0.0
2018-Jul-21 17:59N 29°19' W 094°48'0 0.0
2018-Jul-21 17:29N 29°19' W 094°48'0 0.0
2018-Jul-21 16:59N 29°19' W 094°48'0 0.0
2018-Jul-21 16:30N 29°19' W 094°48'0 0.0
2018-Jul-21 16:00N 29°19' W 094°48'0 0.0
2018-Jul-21 15:30N 29°19' W 094°48'0 0.1
2018-Jul-21 15:00N 29°19' W 094°48'0 0.1
2018-Jul-21 14:30N 29°19' W 094°48'0 0.0
2018-Jul-21 14:00N 29°19' W 094°48'0 0.0
2018-Jul-21 13:30N 29°19' W 094°48'0 0.0
2018-Jul-21 13:00N 29°19' W 094°48'0 0.9
2018-Jul-21 12:31N 29°19' W 094°47'1 2.3
2018-Jul-21 12:00N 29°20' W 094°47'611.8
2018-Jul-21 11:30N 29°20' W 094°40'714.4
2018-Jul-21 11:00N 29°16' W 094°33'713.8
2018-Jul-21 10:30N 29°12' W 094°27'713.3
2018-Jul-21 09:58N 29°08' W 094°20'715.2
2018-Jul-21 09:30N 29°04' W 094°13'815.5
2018-Jul-21 09:01N 28°59' W 094°06'815.4
2018-Jul-21 08:30N 28°55' W 093°59'815.0
2018-Jul-21 08:00N 28°51' W 093°52'511.0
2018-Jul-21 07:30N 28°47' W 093°46'511.0
2018-Jul-21 07:00N 28°44' W 093°41'510.8
2018-Jul-21 06:30N 28°41' W 093°36'611.2
2018-Jul-21 06:00N 28°38' W 093°31'611.1
2018-Jul-21 05:30N 28°35' W 093°26'714.5
2018-Jul-21 05:00N 28°30' W 093°19'816.5
2018-Jul-21 04:30N 28°25' W 093°12'816.5
2018-Jul-21 04:00N 28°21' W 093°04'816.5
2018-Jul-21 03:30N 28°16' W 092°57'916.0
2018-Jul-21 02:58N 28°10' W 092°49'815.8
2018-Jul-21 02:28N 28°04' W 092°44'4615.7
2018-Jul-20 23:33N 27°30' W 092°09'115.8
2018-Jul-20 23:30N 27°29' W 092°09'815.8
2018-Jul-20 23:00N 27°24' W 092°02'815.9
2018-Jul-20 22:30N 27°18' W 091°56'  
2018-Jul-17 00:24N 20°21' W 087°06'1213.3
2018-Jul-16 23:31N 20°30' W 086°58'1 1.2
2018-Jul-16 22:58N 20°31' W 086°57'0 0.0
2018-Jul-16 22:28N 20°31' W 086°57'0 0.0
2018-Jul-16 21:58N 20°31' W 086°57'0 0.0
2018-Jul-16 21:28N 20°31' W 086°57'0 0.0
2018-Jul-16 20:52N 20°31' W 086°57'0 0.0
2018-Jul-16 20:28N 20°31' W 086°57'0 0.0
2018-Jul-16 19:58N 20°31' W 086°57'0 0.0
2018-Jul-16 19:28N 20°31' W 086°57'0 0.0
2018-Jul-16 18:58N 20°31' W 086°57'0 0.0
2018-Jul-16 18:28N 20°31' W 086°57'0 0.0
2018-Jul-16 17:58N 20°31' W 086°57'0 0.0
2018-Jul-16 17:28N 20°31' W 086°57'0 0.0
2018-Jul-16 16:58N 20°31' W 086°57'0 0.0
2018-Jul-16 16:28N 20°31' W 086°57'0 0.0
2018-Jul-16 15:58N 20°31' W 086°57'0 0.0
2018-Jul-16 15:28N 20°31' W 086°57'0 0.0
2018-Jul-16 14:58N 20°31' W 086°57'0 0.0
2018-Jul-16 14:28N 20°31' W 086°57'0 0.0
2018-Jul-16 13:58N 20°31' W 086°57'0 0.4
2018-Jul-16 13:30N 20°31' W 086°57'4 7.0
2018-Jul-16 13:00N 20°34' W 086°57'713.3
2018-Jul-16 12:29N 20°40' W 086°53'55917.2
2018-Jul-15 04:00N 28°12' W 092°54'8320.0 210 / 141017.910.8 30.019.431.0
2018-Jul-14 23:49N 29°01' W 094°11'1315.4
2018-Jul-14 23:00N 29°08' W 094°23'713.7
2018-Jul-14 22:29N 29°11' W 094°30'715.0
2018-Jul-14 22:01N 29°16' W 094°36'611.5
2018-Jul-14 21:30N 29°20' W 094°41'510.9
2018-Jul-14 21:00N 29°19' W 094°47'1 1.9
2018-Jul-14 20:29N 29°19' W 094°48'0 0.0
2018-Jul-14 19:59N 29°19' W 094°48'0 0.0
2018-Jul-14 19:29N 29°19' W 094°48'0 0.0
2018-Jul-14 18:59N 29°19' W 094°48'0 0.0
2018-Jul-14 18:29N 29°19' W 094°48'0 0.0
2018-Jul-14 17:59N 29°19' W 094°48'0 0.0
2018-Jul-14 17:29N 29°19' W 094°48'0 0.0
2018-Jul-14 16:59N 29°19' W 094°48'0 0.0
2018-Jul-14 16:30N 29°19' W 094°48'0 0.0
2018-Jul-14 15:58N 29°19' W 094°48'0 0.0
2018-Jul-14 15:28N 29°19' W 094°48'0 0.0
2018-Jul-14 14:57N 29°19' W 094°48'0 0.0
2018-Jul-14 14:00N 29°19' W 094°48'0 0.0
2018-Jul-14 13:30N 29°19' W 094°48'0 0.0
2018-Jul-14 12:57N 29°19' W 094°48'1 2.2
2018-Jul-14 12:31N 29°19' W 094°47'3 6.8
2018-Jul-14 12:00N 29°21' W 094°43'815.3
2018-Jul-14 11:29N 29°18' W 094°35'66718.7
2018-Jul-12 23:47N 20°37' W 086°55'414.9
2018-Jul-12 23:30N 20°33' W 086°57'3 5.6
2018-Jul-12 23:00N 20°31' W 086°57'0 0.0
2018-Jul-12 22:30N 20°31' W 086°57'0 0.0
2018-Jul-12 22:00N 20°31' W 086°57'0 0.0
2018-Jul-12 21:30N 20°31' W 086°57'0 0.0
2018-Jul-12 21:00N 20°31' W 086°57'0 0.0
2018-Jul-12 20:30N 20°31' W 086°57'0 0.0
2018-Jul-12 20:00N 20°31' W 086°57'0 0.0
2018-Jul-12 19:30N 20°31' W 086°57'0 0.0
2018-Jul-12 19:00N 20°31' W 086°57'0 0.0
2018-Jul-12 18:30N 20°31' W 086°57'0 0.0
2018-Jul-12 18:00N 20°31' W 086°57'0 0.0
2018-Jul-12 17:30N 20°31' W 086°57'0 0.0
2018-Jul-12 17:00N 20°31' W 086°57'0 0.0
2018-Jul-12 16:30N 20°31' W 086°57'0 0.0
2018-Jul-12 16:00N 20°31' W 086°57'0 0.0
2018-Jul-12 15:30N 20°31' W 086°57'0 0.0
2018-Jul-12 14:57N 20°31' W 086°57'1 1.5
2018-Jul-12 14:30N 20°31' W 086°57'4 8.7
2018-Jul-12 14:00N 20°35' W 086°56'  
Track history (hours):
 
Tides and Currents Weather Stations Pressure Air Temp Water Temp Dewpoint Dewpoint Depression Visibility Wind Speed Wind Dir Waves Ship Positions

Carnival Freedom

Last reported at 2018-Jul-22 07:01 UTC. Time now 2018-Jul-22 16:29 UTC.
Position N 27°36' W 092°17'.

Type: Ship. MMSI: 371154000.

Date/timePositionNaut miles runAvg speedWind from/ knotsBaromVisibWave heightAir tempDewpointWater temp
2018-Jul-22 07:01N 27°36' W 092°17'019.6
2018-Jul-22 07:00N 27°36' W 092°18'1019.3
2018-Jul-22 06:28N 27°43' W 092°26'919.2
2018-Jul-22 06:00N 27°50' W 092°33'919.0
2018-Jul-22 05:30N 27°57' W 092°39'1019.0
2018-Jul-22 05:00N 28°05' W 092°46'1018.8
2018-Jul-22 04:30N 28°12' W 092°53'918.5
2018-Jul-22 03:59N 28°18' W 093°01'918.5
2018-Jul-22 03:30N 28°23' W 093°09'917.7
2018-Jul-22 03:01N 28°28' W 093°18'918.5
2018-Jul-22 02:30N 28°34' W 093°26'918.8
2018-Jul-22 02:00N 28°39' W 093°35'918.5
2018-Jul-22 01:30N 28°44' W 093°43'918.5
2018-Jul-22 01:01N 28°50' W 093°52'918.2
2018-Jul-22 00:30N 28°55' W 094°00'815.8
2018-Jul-22 00:00N 28°60' W 094°08'815.6
2018-Jul-21 23:31N 29°04' W 094°15'815.4
2018-Jul-21 23:00N 29°08' W 094°23'815.4
2018-Jul-21 22:30N 29°12' W 094°30'714.9
2018-Jul-21 22:00N 29°17' W 094°37'612.1
2018-Jul-21 21:30N 29°21' W 094°42'5 9.9
2018-Jul-21 21:00N 29°19' W 094°48'0 0.4
2018-Jul-21 20:27N 29°19' W 094°48'0 0.0
2018-Jul-21 20:00N 29°19' W 094°48'0 0.0
2018-Jul-21 19:30N 29°19' W 094°48'0 0.0
2018-Jul-21 19:00N 29°19' W 094°48'0 0.0
2018-Jul-21 18:30N 29°19' W 094°48'0 0.0
2018-Jul-21 17:59N 29°19' W 094°48'0 0.0
2018-Jul-21 17:29N 29°19' W 094°48'0 0.0
2018-Jul-21 16:59N 29°19' W 094°48'0 0.0
2018-Jul-21 16:30N 29°19' W 094°48'0 0.0
2018-Jul-21 16:00N 29°19' W 094°48'0 0.0
2018-Jul-21 15:30N 29°19' W 094°48'0 0.1
2018-Jul-21 15:00N 29°19' W 094°48'0 0.1
2018-Jul-21 14:30N 29°19' W 094°48'0 0.0
2018-Jul-21 14:00N 29°19' W 094°48'0 0.0
2018-Jul-21 13:30N 29°19' W 094°48'0 0.0
2018-Jul-21 13:00N 29°19' W 094°48'0 0.9
2018-Jul-21 12:31N 29°19' W 094°47'1 2.3
2018-Jul-21 12:00N 29°20' W 094°47'611.8
2018-Jul-21 11:30N 29°20' W 094°40'714.4
2018-Jul-21 11:00N 29°16' W 094°33'713.8
2018-Jul-21 10:30N 29°12' W 094°27'713.3
2018-Jul-21 09:58N 29°08' W 094°20'715.2
2018-Jul-21 09:30N 29°04' W 094°13'815.5
2018-Jul-21 09:01N 28°59' W 094°06'815.4
2018-Jul-21 08:30N 28°55' W 093°59'815.0
2018-Jul-21 08:00N 28°51' W 093°52'511.0
2018-Jul-21 07:30N 28°47' W 093°46'511.0
2018-Jul-21 07:00N 28°44' W 093°41'510.8
2018-Jul-21 06:30N 28°41' W 093°36'611.2
2018-Jul-21 06:00N 28°38' W 093°31'611.1
2018-Jul-21 05:30N 28°35' W 093°26'714.5
2018-Jul-21 05:00N 28°30' W 093°19'816.5
2018-Jul-21 04:30N 28°25' W 093°12'816.5
2018-Jul-21 04:00N 28°21' W 093°04'816.5
2018-Jul-21 03:30N 28°16' W 092°57'916.0
2018-Jul-21 02:58N 28°10' W 092°49'815.8
2018-Jul-21 02:28N 28°04' W 092°44'4615.7
2018-Jul-20 23:33N 27°30' W 092°09'115.8
2018-Jul-20 23:30N 27°29' W 092°09'815.8
2018-Jul-20 23:00N 27°24' W 092°02'815.9
2018-Jul-20 22:30N 27°18' W 091°56'  
2018-Jul-17 00:24N 20°21' W 087°06'1213.3
2018-Jul-16 23:31N 20°30' W 086°58'1 1.2
2018-Jul-16 22:58N 20°31' W 086°57'0 0.0
2018-Jul-16 22:28N 20°31' W 086°57'0 0.0
2018-Jul-16 21:58N 20°31' W 086°57'0 0.0
2018-Jul-16 21:28N 20°31' W 086°57'0 0.0
2018-Jul-16 20:52N 20°31' W 086°57'0 0.0
2018-Jul-16 20:28N 20°31' W 086°57'0 0.0
2018-Jul-16 19:58N 20°31' W 086°57'0 0.0
2018-Jul-16 19:28N 20°31' W 086°57'0 0.0
2018-Jul-16 18:58N 20°31' W 086°57'0 0.0
2018-Jul-16 18:28N 20°31' W 086°57'0 0.0
2018-Jul-16 17:58N 20°31' W 086°57'0 0.0
2018-Jul-16 17:28N 20°31' W 086°57'0 0.0
2018-Jul-16 16:58N 20°31' W 086°57'0 0.0
2018-Jul-16 16:28N 20°31' W 086°57'0 0.0
2018-Jul-16 15:58N 20°31' W 086°57'0 0.0
2018-Jul-16 15:28N 20°31' W 086°57'0 0.0
2018-Jul-16 14:58N 20°31' W 086°57'0 0.0
2018-Jul-16 14:28N 20°31' W 086°57'0 0.0
2018-Jul-16 13:58N 20°31' W 086°57'0 0.4
2018-Jul-16 13:30N 20°31' W 086°57'4 7.0
2018-Jul-16 13:00N 20°34' W 086°57'713.3
2018-Jul-16 12:29N 20°40' W 086°53'55917.2
2018-Jul-15 04:00N 28°12' W 092°54'8320.0 210 / 141017.910.8 30.019.431.0
2018-Jul-14 23:49N 29°01' W 094°11'1315.4
2018-Jul-14 23:00N 29°08' W 094°23'713.7
2018-Jul-14 22:29N 29°11' W 094°30'715.0
2018-Jul-14 22:01N 29°16' W 094°36'611.5
2018-Jul-14 21:30N 29°20' W 094°41'510.9
2018-Jul-14 21:00N 29°19' W 094°47'1 1.9
2018-Jul-14 20:29N 29°19' W 094°48'0 0.0
2018-Jul-14 19:59N 29°19' W 094°48'0 0.0
2018-Jul-14 19:29N 29°19' W 094°48'0 0.0
2018-Jul-14 18:59N 29°19' W 094°48'0 0.0
2018-Jul-14 18:29N 29°19' W 094°48'0 0.0
2018-Jul-14 17:59N 29°19' W 094°48'0 0.0
2018-Jul-14 17:29N 29°19' W 094°48'0 0.0
2018-Jul-14 16:59N 29°19' W 094°48'0 0.0
2018-Jul-14 16:30N 29°19' W 094°48'0 0.0
2018-Jul-14 15:58N 29°19' W 094°48'0 0.0
2018-Jul-14 15:28N 29°19' W 094°48'0 0.0
2018-Jul-14 14:57N 29°19' W 094°48'0 0.0
2018-Jul-14 14:00N 29°19' W 094°48'0 0.0
2018-Jul-14 13:30N 29°19' W 094°48'0 0.0
2018-Jul-14 12:57N 29°19' W 094°48'1 2.2
2018-Jul-14 12:31N 29°19' W 094°47'3 6.8
2018-Jul-14 12:00N 29°21' W 094°43'815.3
2018-Jul-14 11:29N 29°18' W 094°35'66718.7
2018-Jul-12 23:47N 20°37' W 086°55'414.9
2018-Jul-12 23:30N 20°33' W 086°57'3 5.6
2018-Jul-12 23:00N 20°31' W 086°57'0 0.0
2018-Jul-12 22:30N 20°31' W 086°57'0 0.0
2018-Jul-12 22:00N 20°31' W 086°57'0 0.0
2018-Jul-12 21:30N 20°31' W 086°57'0 0.0
2018-Jul-12 21:00N 20°31' W 086°57'0 0.0
2018-Jul-12 20:30N 20°31' W 086°57'0 0.0
2018-Jul-12 20:00N 20°31' W 086°57'0 0.0
2018-Jul-12 19:30N 20°31' W 086°57'0 0.0
2018-Jul-12 19:00N 20°31' W 086°57'0 0.0
2018-Jul-12 18:30N 20°31' W 086°57'0 0.0
2018-Jul-12 18:00N 20°31' W 086°57'0 0.0
2018-Jul-12 17:30N 20°31' W 086°57'0 0.0
2018-Jul-12 17:00N 20°31' W 086°57'0 0.0
2018-Jul-12 16:30N 20°31' W 086°57'0 0.0
2018-Jul-12 16:00N 20°31' W 086°57'0 0.0
2018-Jul-12 15:30N 20°31' W 086°57'0 0.0
2018-Jul-12 14:57N 20°31' W 086°57'1 1.5
2018-Jul-12 14:30N 20°31' W 086°57'4 8.7
2018-Jul-12 14:00N 20°35' W 086°56'  

Dump ship's entire track history